Terminal Aerodrome Forecast
Issued by NWS Pittsburgh, PA

Current Version | Previous Version | Text Only | Print | Product List | Glossary Off
Versions: 1 2 3 4 5 6 7 8 9 10 11 12 13 14 15 16 17 18 19 20 21 22 23 24 25 26 27 28 29 30 31 32 33 34 35 36 37 38

000
FTUS41 KPBZ 202300
TAFPIT
TAF
KPIT 202320Z 2100/2206 25006KT P6SM BKN060
      TEMPO 2100/2101 4SM -TSRA BKN030CB
     FM210300 VRB05KT P6SM SCT060
      TEMPO 2110/2113 5SM BR
     FM211600 24010KT P6SM BKN060
     FM220000 VRB05KT P6SM SCT060=

USA.gov is the U.S. government's official web portal to all federal, state and local government web resources and services.